createdAt,value
2022-07-29T00:02:14.320Z,16.50
2022-07-29T00:12:39.212Z,16.30
2022-07-29T00:23:04.705Z,16.30
2022-07-29T00:33:28.474Z,16.10
2022-07-29T00:43:50.688Z,16.00
2022-07-29T00:54:16.187Z,15.80
2022-07-29T01:04:37.717Z,15.70
2022-07-29T01:15:01.356Z,15.50
2022-07-29T01:25:50.739Z,15.40
2022-07-29T01:36:25.830Z,15.20
2022-07-29T01:46:57.248Z,15.20
2022-07-29T01:57:26.561Z,15.10
2022-07-29T02:07:50.119Z,15.00
2022-07-29T02:18:17.670Z,14.90
2022-07-29T02:28:41.392Z,14.80
2022-07-29T02:39:06.048Z,14.90
2022-07-29T02:49:38.724Z,14.80
2022-07-29T03:00:06.463Z,14.80
2022-07-29T03:10:28.995Z,14.80
2022-07-29T03:20:52.346Z,14.80
2022-07-29T03:31:13.899Z,14.90
2022-07-29T03:41:38.976Z,15.00
2022-07-29T03:52:02.128Z,15.00
2022-07-29T04:02:30.566Z,15.10
2022-07-29T04:12:52.422Z,15.20
2022-07-29T04:23:15.571Z,15.40
2022-07-29T04:33:37.377Z,15.60
2022-07-29T04:44:02.095Z,15.90
2022-07-29T04:54:24.801Z,16.10
2022-07-29T05:04:50.946Z,16.20
2022-07-29T05:15:13.032Z,16.40
2022-07-29T05:25:42.451Z,16.70
2022-07-29T05:36:08.011Z,16.80
2022-07-29T05:46:31.885Z,16.90
2022-07-29T05:56:53.714Z,17.10
2022-07-29T06:07:17.205Z,18.30
2022-07-29T06:18:00.806Z,18.80
2022-07-29T06:28:27.272Z,19.20
2022-07-29T06:38:51.358Z,19.90
2022-07-29T06:49:15.671Z,19.80
2022-07-29T06:59:37.399Z,19.80
2022-07-29T07:10:00.827Z,20.20
2022-07-29T07:20:27.125Z,20.60
2022-07-29T07:30:52.819Z,21.30
2022-07-29T07:41:15.702Z,20.50
2022-07-29T07:51:40.038Z,22.00
2022-07-29T08:02:02.323Z,24.00
2022-07-29T08:12:25.704Z,23.60
2022-07-29T08:22:47.624Z,23.70
2022-07-29T08:33:10.705Z,23.70
2022-07-29T08:43:32.988Z,23.90
2022-07-29T08:53:57.280Z,24.60
2022-07-29T09:04:20.070Z,24.50
2022-07-29T09:14:43.439Z,24.80
2022-07-29T09:25:05.646Z,25.70
2022-07-29T09:35:29.708Z,26.60
2022-07-29T09:45:51.184Z,26.10
2022-07-29T09:56:16.525Z,26.80
2022-07-29T10:07:04.782Z,27.30
2022-07-29T10:17:34.227Z,26.70
2022-07-29T10:27:58.896Z,26.80
2022-07-29T10:38:49.468Z,26.40
2022-07-29T10:49:15.311Z,26.80
2022-07-29T10:59:38.968Z,27.80
2022-07-29T11:10:22.618Z,28.40
2022-07-29T11:20:55.790Z,28.20
2022-07-29T11:31:21.818Z,28.40
2022-07-29T11:41:45.407Z,29.50
2022-07-29T11:52:11.009Z,28.20
2022-07-29T12:02:48.254Z,29.30
2022-07-29T12:13:12.788Z,29.80
2022-07-29T12:23:40.752Z,29.40
2022-07-29T12:34:27.205Z,28.80
2022-07-29T12:44:58.188Z,29.80
2022-07-29T12:55:50.599Z,29.70
2022-07-29T13:06:45.878Z,29.10
2022-07-29T13:17:14.188Z,29.90
2022-07-29T13:27:37.805Z,29.70
2022-07-29T13:38:01.389Z,29.80
2022-07-29T13:48:23.375Z,29.20
2022-07-29T13:58:48.835Z,28.30
2022-07-29T14:09:10.724Z,29.20
2022-07-29T14:19:36.480Z,30.20
2022-07-29T14:29:58.231Z,28.70
2022-07-29T14:40:21.681Z,30.00
2022-07-29T14:50:43.626Z,30.90
2022-07-29T15:01:06.929Z,30.60
2022-07-29T15:11:31.761Z,29.70
2022-07-29T15:22:01.852Z,30.80
2022-07-29T15:32:26.165Z,30.90
2022-07-29T15:42:50.804Z,30.10
2022-07-29T15:53:12.636Z,29.30
2022-07-29T16:03:35.824Z,29.70
2022-07-29T16:13:57.316Z,29.60
2022-07-29T16:24:20.171Z,29.00
2022-07-29T16:34:41.948Z,29.20
2022-07-29T16:45:06.074Z,29.80
2022-07-29T16:55:28.801Z,29.20
2022-07-29T17:05:54.250Z,28.10
2022-07-29T17:16:18.397Z,28.00
2022-07-29T17:26:44.520Z,27.80
2022-07-29T17:37:06.597Z,28.00
2022-07-29T17:47:29.303Z,27.80
2022-07-29T17:57:57.190Z,27.60
2022-07-29T18:08:28.430Z,27.20
2022-07-29T18:18:52.794Z,26.70
2022-07-29T18:29:15.940Z,26.30
2022-07-29T18:39:37.995Z,25.80
2022-07-29T18:50:01.447Z,25.40
2022-07-29T19:00:23.915Z,25.10
2022-07-29T19:10:47.125Z,24.70
2022-07-29T19:21:09.016Z,24.50
2022-07-29T19:31:32.521Z,24.30
2022-07-29T19:41:59.189Z,24.00
2022-07-29T19:52:24.994Z,23.90
2022-07-29T20:02:46.995Z,23.60
2022-07-29T20:13:10.609Z,23.40
2022-07-29T20:23:33.483Z,23.30
2022-07-29T20:33:56.885Z,23.10
2022-07-29T20:44:19.759Z,23.00
2022-07-29T20:54:43.297Z,22.80
2022-07-29T21:05:12.794Z,22.70
2022-07-29T21:15:36.198Z,22.50
2022-07-29T21:25:58.583Z,22.40
2022-07-29T21:47:14.491Z,22.00
2022-07-29T21:57:48.591Z,21.80
2022-07-29T22:08:13.767Z,21.60
2022-07-29T22:18:40.078Z,21.60
2022-07-29T22:29:02.692Z,21.50
2022-07-29T22:39:26.721Z,21.40
2022-07-29T22:49:48.681Z,21.20
2022-07-29T23:00:15.284Z,21.10
2022-07-29T23:10:36.943Z,21.00
2022-07-29T23:21:00.141Z,20.70
2022-07-29T23:31:25.588Z,20.60
2022-07-29T23:41:49.147Z,20.40
2022-07-29T23:52:11.074Z,20.30
